createdAt,value
2023-05-12T00:00:44.894Z,94367.00
2023-05-12T00:01:44.916Z,94367.00
2023-05-12T00:02:45.061Z,94363.00
2023-05-12T00:03:45.120Z,94363.00
2023-05-12T00:04:45.090Z,94363.00
2023-05-12T00:05:45.114Z,94363.00
2023-05-12T00:06:45.148Z,94357.00
2023-05-12T00:07:45.169Z,94359.00
2023-05-12T00:08:45.237Z,94359.00
2023-05-12T00:09:45.279Z,94361.00
2023-05-12T00:10:45.356Z,94357.00
2023-05-12T00:11:45.389Z,94359.00
2023-05-12T00:12:45.436Z,94359.00
2023-05-12T00:13:45.502Z,94359.00
2023-05-12T00:14:45.545Z,94359.00
2023-05-12T00:15:45.602Z,94357.00
2023-05-12T00:16:45.686Z,94357.00
2023-05-12T00:17:45.750Z,94357.00
2023-05-12T00:18:45.854Z,94357.00
2023-05-12T00:19:45.849Z,94357.00
2023-05-12T00:20:45.885Z,94357.00
2023-05-12T00:21:45.933Z,94355.00
2023-05-12T00:22:45.988Z,94355.00
2023-05-12T00:23:46.058Z,94355.00
2023-05-12T00:24:46.109Z,94359.00
2023-05-12T00:25:46.161Z,94361.00
2023-05-12T00:26:46.242Z,94361.00
2023-05-12T00:27:46.281Z,94361.00
2023-05-12T00:28:46.345Z,94363.00
2023-05-12T00:29:46.411Z,94363.00
2023-05-12T00:30:46.469Z,94361.00
2023-05-12T00:31:46.568Z,94363.00
2023-05-12T00:32:46.646Z,94365.00
2023-05-12T00:33:46.659Z,94365.00
2023-05-12T00:34:46.701Z,94363.00
2023-05-12T00:35:46.770Z,94361.00
2023-05-12T00:36:46.833Z,94363.00
2023-05-12T00:37:46.878Z,94361.00
2023-05-12T00:38:46.950Z,94361.00
2023-05-12T00:39:46.995Z,94359.00
2023-05-12T00:40:47.055Z,94359.00
2023-05-12T00:41:47.126Z,94359.00
2023-05-12T00:42:47.195Z,94359.00
2023-05-12T00:43:47.236Z,94355.00
2023-05-12T00:44:47.298Z,94361.00
2023-05-12T00:45:47.396Z,94361.00
2023-05-12T00:46:47.404Z,94361.00
2023-05-12T00:47:47.514Z,94359.00
2023-05-12T00:48:47.529Z,94359.00
2023-05-12T00:49:47.592Z,94361.00
2023-05-12T00:50:47.667Z,94361.00
2023-05-12T00:51:47.712Z,94359.00
2023-05-12T00:52:47.812Z,94357.00
2023-05-12T00:53:50.187Z,94357.00
2023-05-12T00:54:47.826Z,94355.00
2023-05-12T00:55:47.820Z,94355.00
2023-05-12T00:56:47.818Z,94355.00
2023-05-12T00:57:47.795Z,94353.00
2023-05-12T00:58:47.797Z,94353.00
2023-05-12T00:59:47.782Z,94353.00
2023-05-12T01:00:47.852Z,94351.00
2023-05-12T01:01:47.777Z,94347.00
2023-05-12T01:02:47.841Z,94347.00
2023-05-12T01:03:47.801Z,94347.00
2023-05-12T01:04:47.760Z,94347.00
2023-05-12T01:05:47.765Z,94349.00
2023-05-12T01:06:47.738Z,94349.00
2023-05-12T01:07:47.750Z,94349.00
2023-05-12T01:08:47.733Z,94349.00
2023-05-12T01:09:47.726Z,94349.00
2023-05-12T01:10:47.715Z,94351.00
2023-05-12T01:11:47.717Z,94349.00
2023-05-12T01:12:47.715Z,94347.00
2023-05-12T01:13:47.691Z,94347.00
2023-05-12T01:14:47.684Z,94347.00
2023-05-12T01:15:47.695Z,94347.00
2023-05-12T01:16:47.720Z,94347.00
2023-05-12T01:17:47.767Z,94347.00
2023-05-12T01:18:47.660Z,94345.00
2023-05-12T01:19:47.663Z,94345.00
2023-05-12T01:20:47.699Z,94347.00
2023-05-12T01:21:47.636Z,94345.00
2023-05-12T01:22:47.634Z,94345.00
2023-05-12T01:23:47.631Z,94345.00
2023-05-12T01:24:47.627Z,94341.00
2023-05-12T01:25:47.610Z,94339.00
2023-05-12T01:26:47.608Z,94339.00
2023-05-12T01:27:47.606Z,94343.00
2023-05-12T01:28:47.602Z,94339.00
2023-05-12T01:29:47.577Z,94336.00
2023-05-12T01:30:47.602Z,94336.00
2023-05-12T01:31:47.751Z,94334.00
2023-05-12T01:32:47.753Z,94334.00
2023-05-12T01:33:47.720Z,94332.00
2023-05-12T01:34:47.768Z,94334.00
2023-05-12T01:35:47.836Z,94334.00
2023-05-12T01:36:47.893Z,94334.00
2023-05-12T01:37:47.953Z,94334.00
2023-05-12T01:38:48.020Z,94334.00
2023-05-12T01:39:48.070Z,94337.00
2023-05-12T01:40:48.145Z,94341.00
2023-05-12T01:41:48.170Z,94339.00
2023-05-12T01:42:48.233Z,94341.00
2023-05-12T01:43:48.299Z,94343.00
2023-05-12T01:44:48.360Z,94341.00
2023-05-12T01:45:48.439Z,94341.00
2023-05-12T01:46:48.582Z,94341.00
2023-05-12T01:47:48.600Z,94341.00
2023-05-12T01:48:48.596Z,94341.00
2023-05-12T01:49:48.650Z,94341.00
2023-05-12T01:50:48.741Z,94339.00
2023-05-12T01:51:48.790Z,94337.00
2023-05-12T01:52:48.850Z,94343.00
2023-05-12T01:53:48.903Z,94343.00
2023-05-12T01:54:48.949Z,94341.00
2023-05-12T01:55:49.044Z,94345.00
2023-05-12T01:56:49.076Z,94347.00
2023-05-12T01:57:49.136Z,94343.00
2023-05-12T01:58:49.233Z,94345.00
2023-05-12T01:59:49.266Z,94347.00
2023-05-12T02:00:49.314Z,94351.00
2023-05-12T02:01:49.422Z,94349.00
2023-05-12T02:02:49.508Z,94349.00
2023-05-12T02:03:49.671Z,94349.00
2023-05-12T02:04:49.567Z,94349.00
2023-05-12T02:05:49.635Z,94351.00
2023-05-12T02:06:49.692Z,94351.00
2023-05-12T02:07:49.744Z,94353.00
2023-05-12T02:08:49.808Z,94353.00
2023-05-12T02:09:49.872Z,94353.00
2023-05-12T02:10:49.924Z,94353.00
2023-05-12T02:11:49.992Z,94353.00
2023-05-12T02:12:50.059Z,94353.00
2023-05-12T02:13:50.108Z,94355.00
2023-05-12T02:14:50.174Z,94355.00
2023-05-12T02:15:50.229Z,94353.00
2023-05-12T02:16:50.434Z,94351.00
2023-05-12T02:17:50.442Z,94357.00
2023-05-12T02:18:50.444Z,94355.00
2023-05-12T02:19:50.494Z,94355.00
2023-05-12T02:20:50.544Z,94357.00
2023-05-12T02:21:50.656Z,94355.00
2023-05-12T02:22:50.683Z,94357.00
2023-05-12T02:23:50.729Z,94355.00
2023-05-12T02:24:50.793Z,94353.00
2023-05-12T02:25:50.850Z,94357.00
2023-05-12T02:26:50.899Z,94357.00
2023-05-12T02:27:50.959Z,94357.00
2023-05-12T02:28:51.032Z,94357.00
2023-05-12T02:29:51.088Z,94359.00
2023-05-12T02:30:51.157Z,94359.00
2023-05-12T02:31:51.252Z,94359.00
2023-05-12T02:32:51.276Z,94357.00
2023-05-12T02:33:51.349Z,94357.00
2023-05-12T02:34:51.410Z,94357.00
2023-05-12T02:35:51.468Z,94351.00
2023-05-12T02:36:51.526Z,94357.00
2023-05-12T02:37:51.578Z,94351.00
2023-05-12T02:38:51.652Z,94353.00
2023-05-12T02:39:51.710Z,94357.00
2023-05-12T02:40:51.766Z,94349.00
2023-05-12T02:41:51.867Z,94355.00
2023-05-12T02:42:51.890Z,94355.00
2023-05-12T02:43:51.915Z,94349.00
2023-05-12T02:44:51.981Z,94349.00
2023-05-12T02:45:52.111Z,94349.00
2023-05-12T02:46:52.093Z,94349.00
2023-05-12T02:47:52.196Z,94347.00
2023-05-12T02:48:52.186Z,94349.00
2023-05-12T02:49:52.242Z,94349.00
2023-05-12T02:50:52.334Z,94349.00
2023-05-12T02:51:52.346Z,94349.00
2023-05-12T02:52:52.398Z,94349.00
2023-05-12T02:53:52.455Z,94349.00
2023-05-12T02:54:52.510Z,94349.00
2023-05-12T02:55:52.565Z,94351.00
2023-05-12T02:56:52.618Z,94349.00
2023-05-12T02:57:52.671Z,94345.00
2023-05-12T02:58:52.721Z,94345.00
2023-05-12T02:59:52.789Z,94343.00
2023-05-12T03:01:03.063Z,94347.00
2023-05-12T03:01:53.867Z,94347.00
2023-05-12T03:02:52.868Z,94347.00
2023-05-12T03:03:52.852Z,94345.00
2023-05-12T03:04:52.799Z,94351.00
2023-05-12T03:05:52.796Z,94345.00
2023-05-12T03:06:52.821Z,94345.00
2023-05-12T03:07:52.803Z,94347.00
2023-05-12T03:08:52.779Z,94343.00
2023-05-12T03:09:52.772Z,94343.00
2023-05-12T03:10:52.767Z,94343.00
2023-05-12T03:11:52.786Z,94343.00
2023-05-12T03:12:52.843Z,94343.00
2023-05-12T03:13:52.908Z,94343.00
2023-05-12T03:14:52.973Z,94343.00
2023-05-12T03:15:53.013Z,94343.00
2023-05-12T03:16:53.238Z,94343.00
2023-05-12T03:17:53.220Z,94343.00
2023-05-12T03:18:53.200Z,94341.00
2023-05-12T03:19:53.232Z,94341.00
2023-05-12T03:20:53.301Z,94343.00
2023-05-12T03:21:53.365Z,94339.00
2023-05-12T03:22:53.417Z,94341.00
2023-05-12T03:23:53.478Z,94341.00
2023-05-12T03:24:53.535Z,94343.00
2023-05-12T03:25:53.578Z,94341.00
2023-05-12T03:26:53.648Z,94341.00
2023-05-12T03:27:53.714Z,94341.00
2023-05-12T03:28:53.773Z,94343.00
2023-05-12T03:29:53.804Z,94343.00
2023-05-12T03:30:53.866Z,94343.00
2023-05-12T03:31:54.013Z,94345.00
2023-05-12T03:32:54.070Z,94345.00
2023-05-12T03:33:54.055Z,94345.00
2023-05-12T03:34:54.103Z,94345.00
2023-05-12T03:35:54.164Z,94345.00
2023-05-12T03:36:54.228Z,94345.00
2023-05-12T03:37:54.320Z,94345.00
2023-05-12T03:38:54.343Z,94343.00
2023-05-12T03:39:54.413Z,94341.00
2023-05-12T03:40:54.455Z,94343.00
2023-05-12T03:41:54.538Z,94341.00
2023-05-12T03:42:54.569Z,94341.00
2023-05-12T03:43:54.639Z,94341.00
2023-05-12T03:44:54.688Z,94341.00
2023-05-12T03:45:54.760Z,94341.00
2023-05-12T03:46:54.850Z,94341.00
2023-05-12T03:47:54.892Z,94343.00
2023-05-12T03:48:54.901Z,94339.00
2023-05-12T03:49:54.966Z,94337.00
2023-05-12T03:50:55.022Z,94334.00
2023-05-12T03:51:55.091Z,94336.00
2023-05-12T03:52:55.162Z,94339.00
2023-05-12T03:53:55.203Z,94339.00
2023-05-12T03:54:55.262Z,94339.00
2023-05-12T03:55:55.320Z,94341.00
2023-05-12T03:56:55.378Z,94341.00
2023-05-12T03:57:55.430Z,94343.00
2023-05-12T03:58:55.499Z,94343.00
2023-05-12T03:59:55.558Z,94343.00
2023-05-12T04:00:55.612Z,94345.00
2023-05-12T04:01:55.827Z,94341.00
2023-05-12T04:02:55.852Z,94343.00
2023-05-12T04:03:55.860Z,94339.00
2023-05-12T04:04:55.862Z,94341.00
2023-05-12T04:05:55.922Z,94337.00
2023-05-12T04:06:55.989Z,94343.00
2023-05-12T04:07:56.042Z,94341.00
2023-05-12T04:08:56.113Z,94341.00
2023-05-12T04:09:56.174Z,94341.00
2023-05-12T04:10:56.229Z,94345.00
2023-05-12T04:11:56.294Z,94341.00
2023-05-12T04:12:56.359Z,94343.00
2023-05-12T04:13:56.428Z,94341.00
2023-05-12T04:14:56.479Z,94339.00
2023-05-12T04:15:56.526Z,94339.00
2023-05-12T04:16:56.609Z,94339.00
2023-05-12T04:17:56.722Z,94341.00
2023-05-12T04:18:56.777Z,94341.00
2023-05-12T04:19:56.772Z,94343.00
2023-05-12T04:20:56.823Z,94343.00
2023-05-12T04:21:56.891Z,94341.00
2023-05-12T04:22:56.947Z,94343.00
2023-05-12T04:23:57.014Z,94343.00
2023-05-12T04:24:57.068Z,94341.00
2023-05-12T04:25:57.134Z,94343.00
2023-05-12T04:26:57.207Z,94345.00
2023-05-12T04:27:57.272Z,94345.00
2023-05-12T04:28:57.325Z,94349.00
2023-05-12T04:29:57.406Z,94349.00
2023-05-12T04:30:57.444Z,94349.00
2023-05-12T04:31:57.570Z,94351.00
2023-05-12T04:32:57.615Z,94351.00
2023-05-12T04:33:57.638Z,94351.00
2023-05-12T04:34:57.701Z,94353.00
2023-05-12T04:35:57.808Z,94355.00
2023-05-12T04:36:57.857Z,94355.00
2023-05-12T04:37:57.904Z,94355.00
2023-05-12T04:38:57.971Z,94357.00
2023-05-12T04:39:58.032Z,94359.00
2023-05-12T04:40:58.081Z,94359.00
2023-05-12T04:41:58.141Z,94361.00
2023-05-12T04:42:58.320Z,94361.00
2023-05-12T04:44:00.688Z,94365.00
2023-05-12T04:44:58.506Z,94363.00
2023-05-12T04:46:00.062Z,94363.00
2023-05-12T04:46:58.589Z,94367.00
2023-05-12T04:47:58.718Z,94363.00
2023-05-12T04:48:58.718Z,94367.00
2023-05-12T04:49:58.806Z,94365.00
2023-05-12T04:50:58.823Z,94365.00
2023-05-12T04:51:58.951Z,94367.00
2023-05-12T04:52:58.962Z,94375.00
2023-05-12T04:53:59.011Z,94367.00
2023-05-12T04:54:59.079Z,94375.00
2023-05-12T04:55:59.129Z,94375.00
2023-05-12T04:56:59.199Z,94379.00
2023-05-12T04:57:59.272Z,94382.00
2023-05-12T04:58:59.312Z,94384.00
2023-05-12T04:59:59.415Z,94381.00
2023-05-12T05:00:59.500Z,94384.00
2023-05-12T05:01:59.510Z,94384.00
2023-05-12T05:02:59.647Z,94384.00
2023-05-12T05:03:59.780Z,94382.00
2023-05-12T05:04:59.694Z,94382.00
2023-05-12T05:05:59.768Z,94381.00
2023-05-12T05:06:59.905Z,94382.00
2023-05-12T05:07:59.859Z,94382.00
2023-05-12T05:08:59.902Z,94384.00
2023-05-12T05:09:59.945Z,94381.00
2023-05-12T05:10:59.990Z,94384.00
2023-05-12T05:12:00.034Z,94382.00
2023-05-12T05:13:00.127Z,94382.00
2023-05-12T05:14:00.150Z,94381.00
2023-05-12T05:15:00.163Z,94386.00
2023-05-12T05:16:00.291Z,94384.00
2023-05-12T05:17:00.254Z,94386.00
2023-05-12T05:18:01.931Z,94386.00
2023-05-12T05:19:02.054Z,94388.00
2023-05-12T05:20:01.434Z,94388.00
2023-05-12T05:21:01.420Z,94388.00
2023-05-12T05:22:00.308Z,94388.00
2023-05-12T05:23:00.303Z,94390.00
2023-05-12T05:24:00.289Z,94386.00
2023-05-12T05:25:00.278Z,94390.00
2023-05-12T05:26:00.266Z,94390.00
2023-05-12T05:27:00.293Z,94390.00
2023-05-12T05:28:00.253Z,94390.00
2023-05-12T05:29:00.251Z,94390.00
2023-05-12T05:30:00.285Z,94390.00
2023-05-12T05:31:00.284Z,94386.00
2023-05-12T05:32:00.523Z,94388.00
2023-05-12T05:33:00.557Z,94388.00
2023-05-12T05:34:00.219Z,94390.00
2023-05-12T05:35:00.199Z,94386.00
2023-05-12T05:36:00.227Z,94384.00
2023-05-12T05:37:00.197Z,94384.00
2023-05-12T05:38:00.194Z,94386.00
2023-05-12T05:39:00.188Z,94384.00
2023-05-12T05:40:00.218Z,94384.00
2023-05-12T05:41:00.165Z,94388.00
2023-05-12T05:42:00.178Z,94388.00
2023-05-12T05:43:00.152Z,94386.00
2023-05-12T05:44:00.173Z,94388.00
2023-05-12T05:45:00.156Z,94388.00
2023-05-12T05:46:00.164Z,94386.00
2023-05-12T05:47:00.214Z,94386.00
2023-05-12T05:48:00.344Z,94390.00
2023-05-12T05:49:00.249Z,94388.00
2023-05-12T05:50:00.274Z,94388.00
2023-05-12T05:51:00.382Z,94386.00
2023-05-12T05:52:00.380Z,94388.00
2023-05-12T05:53:00.383Z,94386.00
2023-05-12T05:54:00.422Z,94388.00
2023-05-12T05:55:00.467Z,94390.00
2023-05-12T05:56:00.502Z,94384.00
2023-05-12T05:57:00.562Z,94384.00
2023-05-12T05:58:00.617Z,94384.00
2023-05-12T05:59:00.648Z,94384.00
2023-05-12T06:00:00.679Z,94381.00
2023-05-12T06:01:00.732Z,94381.00
2023-05-12T06:02:00.807Z,94382.00
2023-05-12T06:03:01.135Z,94382.00
2023-05-12T06:04:00.963Z,94381.00
2023-05-12T06:05:00.895Z,94381.00
2023-05-12T06:06:00.984Z,94381.00
2023-05-12T06:07:00.985Z,94382.00
2023-05-12T06:08:01.052Z,94382.00
2023-05-12T06:09:01.092Z,94381.00
2023-05-12T06:10:01.136Z,94382.00
2023-05-12T06:11:01.207Z,94382.00
2023-05-12T06:12:01.276Z,94381.00
2023-05-12T06:13:01.532Z,94382.00
2023-05-12T06:14:01.336Z,94386.00
2023-05-12T06:15:01.397Z,94382.00
2023-05-12T06:16:01.443Z,94388.00
2023-05-12T06:17:01.498Z,94388.00
2023-05-12T06:18:01.584Z,94386.00
2023-05-12T06:19:01.615Z,94386.00
2023-05-12T06:20:01.619Z,94386.00
2023-05-12T06:21:01.683Z,94386.00
2023-05-12T06:22:01.704Z,94386.00
2023-05-12T06:23:01.759Z,94386.00
2023-05-12T06:24:01.799Z,94386.00
2023-05-12T06:25:01.850Z,94386.00
2023-05-12T06:26:01.921Z,94388.00
2023-05-12T06:27:01.934Z,94388.00
2023-05-12T06:28:01.982Z,94390.00
2023-05-12T06:29:02.101Z,94390.00
2023-05-12T06:30:02.083Z,94390.00
2023-05-12T06:31:02.151Z,94386.00
2023-05-12T06:32:02.241Z,94386.00
2023-05-12T06:33:02.281Z,94388.00
2023-05-12T06:34:02.281Z,94384.00
2023-05-12T06:35:02.365Z,94384.00
2023-05-12T06:36:02.402Z,94386.00
2023-05-12T06:37:02.417Z,94386.00
2023-05-12T06:38:02.467Z,94390.00
2023-05-12T06:39:02.509Z,94386.00
2023-05-12T06:40:02.570Z,94390.00
2023-05-12T06:41:02.592Z,94390.00
2023-05-12T06:42:02.631Z,94394.00
2023-05-12T06:43:02.648Z,94392.00
2023-05-12T06:44:02.661Z,94392.00
2023-05-12T06:45:02.707Z,94394.00
2023-05-12T06:46:02.728Z,94392.00
2023-05-12T06:47:02.686Z,94392.00
2023-05-12T06:48:02.726Z,94394.00
2023-05-12T06:49:02.671Z,94390.00
2023-05-12T06:50:02.699Z,94392.00
2023-05-12T06:51:02.742Z,94392.00
2023-05-12T06:52:02.809Z,94394.00
2023-05-12T06:53:02.882Z,94392.00
2023-05-12T06:54:02.916Z,94390.00
2023-05-12T06:55:03.006Z,94390.00
2023-05-12T06:56:03.023Z,94388.00
2023-05-12T06:57:03.085Z,94388.00
2023-05-12T06:58:03.162Z,94386.00
2023-05-12T06:59:03.157Z,94382.00
2023-05-12T07:00:03.209Z,94386.00
2023-05-12T07:01:03.284Z,94390.00
2023-05-12T07:02:03.347Z,94392.00
2023-05-12T07:03:03.342Z,94390.00
2023-05-12T07:04:03.422Z,94390.00
2023-05-12T07:05:03.402Z,94390.00
2023-05-12T07:06:03.544Z,94390.00
2023-05-12T07:07:03.467Z,94390.00
2023-05-12T07:08:03.490Z,94390.00
2023-05-12T07:09:03.510Z,94388.00
2023-05-12T07:10:03.542Z,94388.00
2023-05-12T07:11:03.552Z,94386.00
2023-05-12T07:12:03.581Z,94388.00
2023-05-12T07:13:03.616Z,94386.00
2023-05-12T07:14:03.653Z,94382.00
2023-05-12T07:15:03.659Z,94377.00
2023-05-12T07:16:03.716Z,94381.00
2023-05-12T07:17:03.706Z,94379.00
2023-05-12T07:18:03.840Z,94377.00
2023-05-12T07:19:03.866Z,94367.00
2023-05-12T07:20:03.854Z,94365.00
2023-05-12T07:21:03.857Z,94363.00
2023-05-12T07:22:03.842Z,94361.00
2023-05-12T07:23:03.897Z,94363.00
2023-05-12T07:24:03.866Z,94357.00
2023-05-12T07:25:03.905Z,94357.00
2023-05-12T07:26:03.902Z,94357.00
2023-05-12T07:27:03.931Z,94357.00
2023-05-12T07:28:03.972Z,94357.00
2023-05-12T07:29:03.994Z,94359.00
2023-05-12T07:30:04.009Z,94357.00
2023-05-12T07:31:04.142Z,94355.00
2023-05-12T07:32:04.088Z,94353.00
2023-05-12T07:33:04.124Z,94355.00
2023-05-12T07:34:04.119Z,94355.00
2023-05-12T07:35:04.153Z,94355.00
2023-05-12T07:36:04.157Z,94353.00
2023-05-12T07:37:04.127Z,94353.00
2023-05-12T07:38:04.200Z,94353.00
2023-05-12T07:39:04.171Z,94351.00
2023-05-12T07:40:04.165Z,94351.00
2023-05-12T07:41:04.190Z,94353.00
2023-05-12T07:42:04.208Z,94351.00
2023-05-12T07:43:04.261Z,94351.00
2023-05-12T07:44:04.269Z,94349.00
2023-05-12T07:45:04.317Z,94347.00
2023-05-12T07:46:04.324Z,94347.00
2023-05-12T07:47:04.405Z,94347.00
2023-05-12T07:48:04.471Z,94349.00
2023-05-12T07:49:04.466Z,94347.00
2023-05-12T07:50:04.726Z,94345.00
2023-05-12T07:51:04.552Z,94353.00
2023-05-12T07:52:04.609Z,94347.00
2023-05-12T07:53:04.692Z,94351.00
2023-05-12T07:54:04.736Z,94351.00
2023-05-12T07:55:04.775Z,94351.00
2023-05-12T07:56:04.839Z,94351.00
2023-05-12T07:57:04.952Z,94351.00
2023-05-12T07:58:04.932Z,94349.00
2023-05-12T07:59:04.981Z,94351.00
2023-05-12T08:00:05.018Z,94349.00
2023-05-12T08:01:05.069Z,94347.00
2023-05-12T08:02:05.136Z,94347.00
2023-05-12T08:03:05.236Z,94347.00
2023-05-12T08:04:05.270Z,94347.00
2023-05-12T08:05:05.233Z,94345.00
2023-05-12T08:06:05.274Z,94345.00
2023-05-12T08:07:05.328Z,94345.00
2023-05-12T08:08:05.359Z,94343.00
2023-05-12T08:09:05.442Z,94347.00
2023-05-12T08:10:05.451Z,94345.00
2023-05-12T08:11:05.504Z,94349.00
2023-05-12T08:12:05.558Z,94345.00
2023-05-12T08:13:05.643Z,94347.00
2023-05-12T08:14:05.664Z,94349.00
2023-05-12T08:15:05.700Z,94349.00
2023-05-12T08:16:05.755Z,94351.00
2023-05-12T08:17:05.859Z,94349.00
2023-05-12T08:18:05.917Z,94347.00
2023-05-12T08:19:05.995Z,94347.00
2023-05-12T08:20:06.000Z,94347.00
2023-05-12T08:21:06.026Z,94347.00
2023-05-12T08:22:06.076Z,94343.00
2023-05-12T08:23:06.137Z,94343.00
2023-05-12T08:24:06.201Z,94341.00
2023-05-12T08:25:06.240Z,94343.00
2023-05-12T08:26:06.303Z,94341.00
2023-05-12T08:27:06.366Z,94341.00
2023-05-12T08:28:06.430Z,94343.00
2023-05-12T08:29:06.460Z,94341.00
2023-05-12T08:30:06.522Z,94341.00
2023-05-12T08:31:06.595Z,94337.00
2023-05-12T08:32:06.610Z,94341.00
2023-05-12T08:33:06.719Z,94337.00
2023-05-12T08:34:10.537Z,94339.00
2023-05-12T08:35:06.596Z,94337.00
2023-05-12T08:36:06.584Z,94339.00
2023-05-12T08:37:06.585Z,94339.00
2023-05-12T08:38:06.574Z,94341.00
2023-05-12T08:39:06.557Z,94339.00
2023-05-12T08:40:06.558Z,94341.00
2023-05-12T08:41:06.561Z,94337.00
2023-05-12T08:42:06.556Z,94337.00
2023-05-12T08:43:06.560Z,94339.00
2023-05-12T08:44:06.544Z,94339.00
2023-05-12T08:45:06.523Z,94343.00
2023-05-12T08:46:06.561Z,94339.00
2023-05-12T08:47:06.505Z,94341.00
2023-05-12T08:48:06.693Z,94339.00
2023-05-12T08:49:06.502Z,94341.00
2023-05-12T08:50:06.507Z,94341.00
2023-05-12T08:51:06.486Z,94339.00
2023-05-12T08:52:06.473Z,94341.00
2023-05-12T08:53:07.088Z,94337.00
2023-05-12T08:54:06.586Z,94339.00
2023-05-12T08:55:06.451Z,94341.00
2023-05-12T08:57:09.534Z,94339.00
2023-05-12T08:58:07.165Z,94337.00
2023-05-12T08:59:06.567Z,94337.00
2023-05-12T09:00:06.431Z,94337.00
2023-05-12T09:01:06.472Z,94336.00
2023-05-12T09:02:06.450Z,94337.00
2023-05-12T09:03:06.402Z,94337.00
2023-05-12T09:04:06.460Z,94337.00
2023-05-12T09:05:06.389Z,94336.00
2023-05-12T09:06:06.412Z,94337.00
2023-05-12T09:07:06.364Z,94337.00
2023-05-12T09:08:06.386Z,94337.00
2023-05-12T09:09:06.382Z,94337.00
2023-05-12T09:10:06.390Z,94336.00
2023-05-12T09:11:06.428Z,94336.00
2023-05-12T09:12:06.424Z,94343.00
2023-05-12T09:13:06.452Z,94334.00
2023-05-12T09:14:06.511Z,94337.00
2023-05-12T09:15:06.546Z,94334.00
2023-05-12T09:16:06.562Z,94336.00
2023-05-12T09:17:06.508Z,94339.00
2023-05-12T09:18:06.578Z,94337.00
2023-05-12T09:19:07.174Z,94337.00
2023-05-12T09:20:06.543Z,94332.00
2023-05-12T09:21:06.547Z,94334.00
2023-05-12T09:22:06.584Z,94332.00
2023-05-12T09:23:06.646Z,94334.00
2023-05-12T09:24:06.855Z,94330.00
2023-05-12T09:25:06.683Z,94328.00
2023-05-12T09:26:06.807Z,94330.00
2023-05-12T09:27:06.748Z,94334.00
2023-05-12T09:28:06.792Z,94334.00
2023-05-12T09:29:06.883Z,94330.00
2023-05-12T09:30:06.910Z,94328.00
2023-05-12T09:31:07.082Z,94328.00
2023-05-12T09:32:07.073Z,94330.00
2023-05-12T09:33:07.143Z,94328.00
2023-05-12T09:34:07.105Z,94330.00
2023-05-12T09:35:07.163Z,94326.00
2023-05-12T09:36:07.186Z,94324.00
2023-05-12T09:37:07.188Z,94328.00
2023-05-12T09:38:07.187Z,94328.00
2023-05-12T09:39:07.602Z,94330.00
2023-05-12T09:40:07.184Z,94324.00
2023-05-12T09:41:07.237Z,94328.00
2023-05-12T09:42:07.300Z,94326.00
2023-05-12T09:43:07.316Z,94326.00
2023-05-12T09:44:07.340Z,94324.00
2023-05-12T09:45:07.360Z,94326.00
2023-05-12T09:46:07.403Z,94328.00
2023-05-12T09:47:07.540Z,94326.00
2023-05-12T09:48:07.477Z,94326.00
2023-05-12T09:49:07.359Z,94328.00
2023-05-12T09:50:07.368Z,94324.00
2023-05-12T09:51:07.409Z,94326.00
2023-05-12T09:52:07.467Z,94326.00
2023-05-12T09:53:07.534Z,94322.00
2023-05-12T09:54:08.018Z,94320.00
2023-05-12T09:55:07.644Z,94318.00
2023-05-12T09:56:07.762Z,94318.00
2023-05-12T09:57:07.754Z,94314.00
2023-05-12T09:58:07.792Z,94314.00
2023-05-12T09:59:07.853Z,94314.00
2023-05-12T10:00:16.611Z,94312.00
2023-05-12T10:02:08.009Z,94314.00
2023-05-12T10:03:08.128Z,94312.00
2023-05-12T10:04:08.027Z,94310.00
2023-05-12T10:05:08.133Z,94312.00
2023-05-12T10:06:08.181Z,94306.00
2023-05-12T10:07:08.089Z,94308.00
2023-05-12T10:08:08.149Z,94304.00
2023-05-12T10:09:08.188Z,94308.00
2023-05-12T10:10:08.247Z,94306.00
2023-05-12T10:11:08.257Z,94304.00
2023-05-12T10:12:08.300Z,94302.00
2023-05-12T10:13:08.343Z,94302.00
2023-05-12T10:14:08.398Z,94298.00
2023-05-12T10:15:08.506Z,94300.00
2023-05-12T10:16:08.473Z,94304.00
2023-05-12T10:17:08.564Z,94300.00
2023-05-12T10:18:08.597Z,94300.00
2023-05-12T10:19:08.619Z,94296.00
2023-05-12T10:20:08.647Z,94294.00
2023-05-12T10:21:08.708Z,94294.00
2023-05-12T10:22:08.735Z,94298.00
2023-05-12T10:23:08.762Z,94298.00
2023-05-12T10:24:08.824Z,94298.00
2023-05-12T10:25:08.889Z,94296.00
2023-05-12T10:26:08.855Z,94298.00
2023-05-12T10:27:08.876Z,94296.00
2023-05-12T10:28:08.904Z,94294.00
2023-05-12T10:29:09.162Z,94300.00
2023-05-12T10:30:08.977Z,94300.00
2023-05-12T10:31:09.051Z,94296.00
2023-05-12T10:32:09.078Z,94300.00
2023-05-12T10:33:09.079Z,94302.00
2023-05-12T10:34:09.099Z,94300.00
2023-05-12T10:35:09.278Z,94300.00
2023-05-12T10:36:09.186Z,94298.00
2023-05-12T10:37:09.287Z,94298.00
2023-05-12T10:38:09.303Z,94300.00
2023-05-12T10:39:09.402Z,94296.00
2023-05-12T10:40:09.623Z,94296.00
2023-05-12T10:41:09.463Z,94296.00
2023-05-12T10:42:09.533Z,94294.00
2023-05-12T10:43:09.539Z,94294.00
2023-05-12T10:44:09.593Z,94292.00
2023-05-12T10:45:09.595Z,94292.00
2023-05-12T10:46:09.760Z,94292.00
2023-05-12T10:47:11.076Z,94292.00
2023-05-12T10:48:09.704Z,94290.00
2023-05-12T10:49:09.627Z,94292.00
2023-05-12T10:50:09.656Z,94290.00
2023-05-12T10:51:09.742Z,94287.00
2023-05-12T10:52:09.625Z,94287.00
2023-05-12T10:53:10.572Z,94287.00
2023-05-12T10:54:09.635Z,94287.00
2023-05-12T10:55:09.680Z,94289.00
2023-05-12T10:56:09.937Z,94287.00
2023-05-12T10:57:09.906Z,94283.00
2023-05-12T10:58:09.956Z,94283.00
2023-05-12T10:59:10.235Z,94283.00
2023-05-12T11:00:09.845Z,94281.00
2023-05-12T11:01:10.205Z,94283.00
2023-05-12T11:02:10.410Z,94285.00
2023-05-12T11:03:10.438Z,94283.00
2023-05-12T11:04:09.844Z,94281.00
2023-05-12T11:05:10.198Z,94283.00
2023-05-12T11:06:10.446Z,94281.00
2023-05-12T11:07:09.986Z,94279.00
2023-05-12T11:08:09.936Z,94279.00
2023-05-12T11:09:11.038Z,94281.00
2023-05-12T11:10:10.629Z,94279.00
2023-05-12T11:11:11.012Z,94279.00
2023-05-12T11:12:10.022Z,94279.00
2023-05-12T11:13:10.081Z,94275.00
2023-05-12T11:14:10.446Z,94275.00
2023-05-12T11:15:11.135Z,94277.00
2023-05-12T11:16:10.305Z,94275.00
2023-05-12T11:17:10.319Z,94275.00
2023-05-12T11:18:10.417Z,94273.00
2023-05-12T11:19:10.544Z,94277.00
2023-05-12T11:20:10.497Z,94273.00
2023-05-12T11:21:10.540Z,94273.00
2023-05-12T11:22:10.588Z,94273.00
2023-05-12T11:23:10.574Z,94269.00
2023-05-12T11:24:13.158Z,94271.00
2023-05-12T11:25:10.755Z,94271.00
2023-05-12T11:26:10.710Z,94269.00
2023-05-12T11:27:10.706Z,94271.00
2023-05-12T11:28:10.706Z,94271.00
2023-05-12T11:29:10.704Z,94269.00
2023-05-12T11:30:10.715Z,94267.00
2023-05-12T11:31:10.702Z,94267.00
2023-05-12T11:32:10.734Z,94269.00
2023-05-12T11:33:10.744Z,94265.00
2023-05-12T11:34:12.770Z,94265.00
2023-05-12T11:35:10.704Z,94265.00
2023-05-12T11:36:10.694Z,94265.00
2023-05-12T11:37:10.712Z,94261.00
2023-05-12T11:38:10.677Z,94263.00
2023-05-12T11:39:10.727Z,94261.00
2023-05-12T11:40:10.675Z,94261.00
2023-05-12T11:41:10.653Z,94259.00
2023-05-12T11:42:13.523Z,94261.00
2023-05-12T11:43:10.665Z,94261.00
2023-05-12T11:44:10.640Z,94257.00
2023-05-12T11:45:10.628Z,94261.00
2023-05-12T11:46:10.659Z,94259.00
2023-05-12T11:47:10.620Z,94259.00